sensor_id;sensor_type;location;lat;lon;timestamp;pressure;altitude;pressure_sealevel;temperature;humidity
3294;BME280;1659;51.470;6.770;2023-04-27T00:01:23;101873.44;;;4.31;69.09
3294;BME280;1659;51.470;6.770;2023-04-27T00:03:51;101873.31;;;4.26;69.28
3294;BME280;1659;51.470;6.770;2023-04-27T00:06:18;101868.84;;;4.22;69.45
3294;BME280;1659;51.470;6.770;2023-04-27T00:08:44;101872.25;;;4.18;69.42
3294;BME280;1659;51.470;6.770;2023-04-27T00:11:11;101866.06;;;4.14;69.31
3294;BME280;1659;51.470;6.770;2023-04-27T00:13:37;101873.00;;;4.12;69.65
3294;BME280;1659;51.470;6.770;2023-04-27T00:16:04;101874.66;;;4.10;69.53
3294;BME280;1659;51.470;6.770;2023-04-27T00:18:31;101877.22;;;4.09;70.08
3294;BME280;1659;51.470;6.770;2023-04-27T00:20:59;101872.72;;;4.03;69.98
3294;BME280;1659;51.470;6.770;2023-04-27T00:23:25;101873.56;;;4.01;69.85
3294;BME280;1659;51.470;6.770;2023-04-27T00:25:52;101874.28;;;3.96;70.12
3294;BME280;1659;51.470;6.770;2023-04-27T00:28:18;101875.06;;;3.92;70.26
3294;BME280;1659;51.470;6.770;2023-04-27T00:30:45;101875.84;;;3.88;70.21
3294;BME280;1659;51.470;6.770;2023-04-27T00:33:13;101883.59;;;3.85;70.44
3294;BME280;1659;51.470;6.770;2023-04-27T00:35:39;101878.25;;;3.81;70.69
3294;BME280;1659;51.470;6.770;2023-04-27T00:38:07;101886.03;;;3.77;70.69
3294;BME280;1659;51.470;6.770;2023-04-27T00:40:34;101893.72;;;3.73;70.57
3294;BME280;1659;51.470;6.770;2023-04-27T00:43:00;101889.28;;;3.70;70.37
3294;BME280;1659;51.470;6.770;2023-04-27T00:45:27;101897.06;;;3.67;70.83
3294;BME280;1659;51.470;6.770;2023-04-27T00:47:54;101890.00;;;3.65;70.84
3294;BME280;1659;51.470;6.770;2023-04-27T00:50:27;101900.38;;;3.62;70.65
3294;BME280;1659;51.470;6.770;2023-04-27T00:52:54;101893.41;;;3.61;70.88
3294;BME280;1659;51.470;6.770;2023-04-27T00:55:23;101899.34;;;3.56;70.92
3294;BME280;1659;51.470;6.770;2023-04-27T00:57:49;101901.03;;;3.54;71.36
3294;BME280;1659;51.470;6.770;2023-04-27T01:00:16;101897.47;;;3.51;71.53
3294;BME280;1659;51.470;6.770;2023-04-27T01:02:43;101892.19;;;3.48;71.80
3294;BME280;1659;51.470;6.770;2023-04-27T01:05:10;101891.16;;;3.44;71.48
3294;BME280;1659;51.470;6.770;2023-04-27T01:07:37;101903.34;;;3.44;71.51
3294;BME280;1659;51.470;6.770;2023-04-27T01:10:05;101898.94;;;3.41;71.69
3294;BME280;1659;51.470;6.770;2023-04-27T01:12:33;101895.41;;;3.39;71.70
3294;BME280;1659;51.470;6.770;2023-04-27T01:15:00;101889.22;;;3.37;71.47
3294;BME280;1659;51.470;6.770;2023-04-27T01:17:27;101896.13;;;3.35;71.40
3294;BME280;1659;51.470;6.770;2023-04-27T01:19:53;101899.63;;;3.34;71.68
3294;BME280;1659;51.470;6.770;2023-04-27T01:22:21;101894.41;;;3.35;71.52
3294;BME280;1659;51.470;6.770;2023-04-27T01:24:49;101898.84;;;3.38;71.56
3294;BME280;1659;51.470;6.770;2023-04-27T01:27:15;101903.16;;;3.36;72.08
3294;BME280;1659;51.470;6.770;2023-04-27T01:29:42;101908.31;;;3.34;71.75
3294;BME280;1659;51.470;6.770;2023-04-27T01:32:08;101907.34;;;3.31;71.91
3294;BME280;1659;51.470;6.770;2023-04-27T01:34:36;101907.25;;;3.28;72.20
3294;BME280;1659;51.470;6.770;2023-04-27T01:37:03;101907.19;;;3.26;72.42
3294;BME280;1659;51.470;6.770;2023-04-27T01:39:29;101901.00;;;3.22;72.12
3294;BME280;1659;51.470;6.770;2023-04-27T01:41:57;101911.41;;;3.21;72.37
3294;BME280;1659;51.470;6.770;2023-04-27T01:44:24;101901.72;;;3.17;72.37
3294;BME280;1659;51.470;6.770;2023-04-27T01:46:50;101908.63;;;3.15;72.18
3294;BME280;1659;51.470;6.770;2023-04-27T01:49:17;101904.19;;;3.12;72.43
3294;BME280;1659;51.470;6.770;2023-04-27T01:51:43;101913.69;;;3.10;72.34
3294;BME280;1659;51.470;6.770;2023-04-27T01:54:10;101917.13;;;3.09;72.44
3294;BME280;1659;51.470;6.770;2023-04-27T01:56:36;101924.00;;;3.06;72.50
3294;BME280;1659;51.470;6.770;2023-04-27T01:59:04;101932.69;;;3.05;72.58
3294;BME280;1659;51.470;6.770;2023-04-27T02:01:31;101926.50;;;3.01;72.65
3294;BME280;1659;51.470;6.770;2023-04-27T02:03:57;101924.66;;;2.98;73.07
3294;BME280;1659;51.470;6.770;2023-04-27T02:06:24;101928.06;;;2.96;72.71
3294;BME280;1659;51.470;6.770;2023-04-27T02:08:51;101927.03;;;2.91;72.86
3294;BME280;1659;51.470;6.770;2023-04-27T02:11:18;101919.97;;;2.87;72.96
3294;BME280;1659;51.470;6.770;2023-04-27T02:13:44;101920.78;;;2.86;73.02
3294;BME280;1659;51.470;6.770;2023-04-27T02:16:12;101925.91;;;2.82;73.69
3294;BME280;1659;51.470;6.770;2023-04-27T02:18:39;101922.34;;;2.80;73.67
3294;BME280;1659;51.470;6.770;2023-04-27T02:21:07;101919.69;;;2.79;73.34
3294;BME280;1659;51.470;6.770;2023-04-27T02:23:34;101909.16;;;2.76;73.81
3294;BME280;1659;51.470;6.770;2023-04-27T02:26:01;101908.28;;;2.75;73.40
3294;BME280;1659;51.470;6.770;2023-04-27T02:28:27;101909.94;;;2.73;73.24
3294;BME280;1659;51.470;6.770;2023-04-27T02:30:54;101912.63;;;2.75;73.95
3294;BME280;1659;51.470;6.770;2023-04-27T02:33:22;101912.72;;;2.78;73.40
3294;BME280;1659;51.470;6.770;2023-04-27T02:35:48;101904.91;;;2.79;73.67
3294;BME280;1659;51.470;6.770;2023-04-27T02:38:15;101903.22;;;2.80;73.90
3294;BME280;1659;51.470;6.770;2023-04-27T02:40:41;101907.63;;;2.82;73.94
3294;BME280;1659;51.470;6.770;2023-04-27T02:43:08;101906.84;;;2.85;73.54
3294;BME280;1659;51.470;6.770;2023-04-27T02:45:36;101912.03;;;2.83;73.61
3294;BME280;1659;51.470;6.770;2023-04-27T02:48:03;101916.38;;;2.84;73.50
3294;BME280;1659;51.470;6.770;2023-04-27T02:50:31;101913.72;;;2.83;73.92
3294;BME280;1659;51.470;6.770;2023-04-27T02:52:57;101908.47;;;2.81;73.88
3294;BME280;1659;51.470;6.770;2023-04-27T02:55:24;101902.41;;;2.82;73.86
3294;BME280;1659;51.470;6.770;2023-04-27T02:57:51;101905.88;;;2.83;73.93
3294;BME280;1659;51.470;6.770;2023-04-27T03:00:18;101903.34;;;2.84;74.33
3294;BME280;1659;51.470;6.770;2023-04-27T03:02:45;101898.97;;;2.83;74.50
3294;BME280;1659;51.470;6.770;2023-04-27T03:05:11;101902.50;;;2.86;74.44
3294;BME280;1659;51.470;6.770;2023-04-27T03:07:39;101892.13;;;2.87;74.56
3294;BME280;1659;51.470;6.770;2023-04-27T03:10:07;101884.22;;;2.86;74.01
3294;BME280;1659;51.470;6.770;2023-04-27T03:12:34;101883.31;;;2.83;74.59
3294;BME280;1659;51.470;6.770;2023-04-27T03:15:00;101879.75;;;2.81;74.83
3294;BME280;1659;51.470;6.770;2023-04-27T03:17:27;101883.25;;;2.82;74.91
3294;BME280;1659;51.470;6.770;2023-04-27T03:19:53;101887.59;;;2.81;75.00
3294;BME280;1659;51.470;6.770;2023-04-27T03:22:21;101878.03;;;2.82;74.58
3294;BME280;1659;51.470;6.770;2023-04-27T03:24:48;101881.47;;;2.81;74.74
3294;BME280;1659;51.470;6.770;2023-04-27T03:27:15;101875.41;;;2.82;75.03
3294;BME280;1659;51.470;6.770;2023-04-27T03:29:41;101880.69;;;2.83;75.08
3294;BME280;1659;51.470;6.770;2023-04-27T03:32:08;101883.41;;;2.87;74.84
3294;BME280;1659;51.470;6.770;2023-04-27T03:34:34;101890.38;;;2.88;74.90
3294;BME280;1659;51.470;6.770;2023-04-27T03:37:01;101885.16;;;2.88;74.88
3294;BME280;1659;51.470;6.770;2023-04-27T03:39:27;101893.00;;;2.88;75.51
3294;BME280;1659;51.470;6.770;2023-04-27T03:41:55;101894.69;;;2.86;75.29
3294;BME280;1659;51.470;6.770;2023-04-27T03:44:23;101896.34;;;2.83;75.04
3294;BME280;1659;51.470;6.770;2023-04-27T03:46:49;101896.41;;;2.85;75.46
3294;BME280;1659;51.470;6.770;2023-04-27T03:49:16;101900.72;;;2.84;75.55
3294;BME280;1659;51.470;6.770;2023-04-27T03:51:43;101904.19;;;2.83;75.70
3294;BME280;1659;51.470;6.770;2023-04-27T03:54:09;101900.66;;;2.83;75.62
3294;BME280;1659;51.470;6.770;2023-04-27T03:56:36;101898.00;;;2.80;75.24
3294;BME280;1659;51.470;6.770;2023-04-27T03:59:04;101908.38;;;2.78;75.39
3294;BME280;1659;51.470;6.770;2023-04-27T04:01:30;101908.31;;;2.77;75.74
3294;BME280;1659;51.470;6.770;2023-04-27T04:03:57;101910.88;;;2.75;75.90
3294;BME280;1659;51.470;6.770;2023-04-27T04:06:24;101913.44;;;2.74;75.79
3294;BME280;1659;51.470;6.770;2023-04-27T04:08:52;101919.50;;;2.73;75.62
3294;BME280;1659;51.470;6.770;2023-04-27T04:11:19;101915.13;;;2.72;75.55
3294;BME280;1659;51.470;6.770;2023-04-27T04:13:45;101916.00;;;2.72;75.85
3294;BME280;1659;51.470;6.770;2023-04-27T04:16:13;101921.16;;;2.71;76.13
3294;BME280;1659;51.470;6.770;2023-04-27T04:18:40;101923.75;;;2.69;76.36
3294;BME280;1659;51.470;6.770;2023-04-27T04:21:08;101922.78;;;2.67;75.92
3294;BME280;1659;51.470;6.770;2023-04-27T04:23:34;101919.25;;;2.65;75.95
3294;BME280;1659;51.470;6.770;2023-04-27T04:26:01;101923.66;;;2.66;76.36
3294;BME280;1659;51.470;6.770;2023-04-27T04:28:29;101926.38;;;2.69;75.93
3294;BME280;1659;51.470;6.770;2023-04-27T04:30:56;101923.75;;;2.69;76.22
3294;BME280;1659;51.470;6.770;2023-04-27T04:33:24;101919.47;;;2.71;76.11
3294;BME280;1659;51.470;6.770;2023-04-27T04:35:51;101923.00;;;2.73;76.62
3294;BME280;1659;51.470;6.770;2023-04-27T04:38:18;101922.16;;;2.74;75.91
3294;BME280;1659;51.470;6.770;2023-04-27T04:40:45;101928.41;;;2.79;76.44
3294;BME280;1659;51.470;6.770;2023-04-27T04:43:11;101929.44;;;2.84;76.25
3294;BME280;1659;51.470;6.770;2023-04-27T04:45:38;101925.31;;;2.91;76.21
3294;BME280;1659;51.470;6.770;2023-04-27T04:48:05;101919.44;;;2.98;76.20
3294;BME280;1659;51.470;6.770;2023-04-27T04:50:32;101923.97;;;3.04;76.33
3294;BME280;1659;51.470;6.770;2023-04-27T04:52:59;101925.88;;;3.10;76.12
3294;BME280;1659;51.470;6.770;2023-04-27T04:55:25;101924.28;;;3.15;76.63
3294;BME280;1659;51.470;6.770;2023-04-27T04:57:53;101924.50;;;3.22;76.55
3294;BME280;1659;51.470;6.770;2023-04-27T05:00:20;101924.66;;;3.27;76.48
3294;BME280;1659;51.470;6.770;2023-04-27T05:02:47;101932.72;;;3.35;76.07
3294;BME280;1659;51.470;6.770;2023-04-27T05:05:13;101931.28;;;3.45;76.33
3294;BME280;1659;51.470;6.770;2023-04-27T05:07:41;101935.84;;;3.52;76.35
3294;BME280;1659;51.470;6.770;2023-04-27T05:10:08;101940.44;;;3.61;76.58
3294;BME280;1659;51.470;6.770;2023-04-27T05:12:34;101935.47;;;3.70;76.00
3294;BME280;1659;51.470;6.770;2023-04-27T05:15:01;101933.97;;;3.78;76.39
3294;BME280;1659;51.470;6.770;2023-04-27T05:17:28;101942.00;;;3.86;76.41
3294;BME280;1659;51.470;6.770;2023-04-27T05:19:54;101948.38;;;3.95;76.17
3294;BME280;1659;51.470;6.770;2023-04-27T05:22:21;101951.25;;;4.05;75.92
3294;BME280;1659;51.470;6.770;2023-04-27T05:24:49;101952.34;;;4.13;76.27
3294;BME280;1659;51.470;6.770;2023-04-27T05:27:16;101951.75;;;4.23;76.23
3294;BME280;1659;51.470;6.770;2023-04-27T05:29:42;101958.13;;;4.34;75.86
3294;BME280;1659;51.470;6.770;2023-04-27T05:32:09;101961.03;;;4.45;76.08
3294;BME280;1659;51.470;6.770;2023-04-27T05:34:35;101960.38;;;4.54;76.08
3294;BME280;1659;51.470;6.770;2023-04-27T05:37:02;101960.69;;;4.66;76.27
3294;BME280;1659;51.470;6.770;2023-04-27T05:39:29;101966.22;;;4.77;75.84
3294;BME280;1659;51.470;6.770;2023-04-27T05:41:57;101957.72;;;4.89;76.28
3294;BME280;1659;51.470;6.770;2023-04-27T05:44:23;101957.31;;;5.07;76.63
3294;BME280;1659;51.470;6.770;2023-04-27T05:46:52;101964.69;;;5.25;76.59
3294;BME280;1659;51.470;6.770;2023-04-27T05:49:19;101966.03;;;5.45;77.20
3294;BME280;1659;51.470;6.770;2023-04-27T05:51:45;101966.53;;;5.70;76.86
3294;BME280;1659;51.470;6.770;2023-04-27T05:54:12;101965.34;;;5.97;76.68
3294;BME280;1659;51.470;6.770;2023-04-27T05:56:38;101961.06;;;6.51;75.92
3294;BME280;1659;51.470;6.770;2023-04-27T05:59:06;101965.28;;;7.55;73.57
3294;BME280;1659;51.470;6.770;2023-04-27T06:01:33;101959.25;;;8.44;71.92
3294;BME280;1659;51.470;6.770;2023-04-27T06:03:59;101965.97;;;9.15;70.21
3294;BME280;1659;51.470;6.770;2023-04-27T06:06:26;101953.97;;;9.79;68.50
3294;BME280;1659;51.470;6.770;2023-04-27T06:08:56;101956.72;;;10.07;67.63
3294;BME280;1659;51.470;6.770;2023-04-27T06:11:22;101955.88;;;10.29;67.31
3294;BME280;1659;51.470;6.770;2023-04-27T06:13:49;101955.91;;;10.72;66.01
3294;BME280;1659;51.470;6.770;2023-04-27T06:16:16;101948.88;;;10.99;65.38
3294;BME280;1659;51.470;6.770;2023-04-27T06:18:43;101950.53;;;11.39;64.69
3294;BME280;1659;51.470;6.770;2023-04-27T06:21:10;101938.03;;;11.75;63.58
3294;BME280;1659;51.470;6.770;2023-04-27T06:23:36;101945.91;;;11.87;62.33
3294;BME280;1659;51.470;6.770;2023-04-27T06:26:03;101942.38;;;11.94;61.37
3294;BME280;1659;51.470;6.770;2023-04-27T06:28:29;101944.88;;;12.14;61.57
3294;BME280;1659;51.470;6.770;2023-04-27T06:30:56;101950.91;;;12.42;60.40
3294;BME280;1659;51.470;6.770;2023-04-27T06:33:24;101951.50;;;12.74;60.03
3294;BME280;1659;51.470;6.770;2023-04-27T06:35:50;101946.75;;;13.10;59.44
3294;BME280;1659;51.470;6.770;2023-04-27T06:38:17;101946.53;;;13.34;57.99
3294;BME280;1659;51.470;6.770;2023-04-27T06:40:44;101953.34;;;13.55;57.64
3294;BME280;1659;51.470;6.770;2023-04-27T06:43:10;101955.03;;;13.64;56.40
3294;BME280;1659;51.470;6.770;2023-04-27T06:45:37;101945.22;;;13.68;55.94
3294;BME280;1659;51.470;6.770;2023-04-27T06:48:04;101950.31;;;13.88;56.44
3294;BME280;1659;51.470;6.770;2023-04-27T06:50:32;101941.97;;;14.14;55.93
3294;BME280;1659;51.470;6.770;2023-04-27T06:52:58;101945.34;;;14.22;54.47
3294;BME280;1659;51.470;6.770;2023-04-27T06:55:25;101943.63;;;14.21;54.17
3294;BME280;1659;51.470;6.770;2023-04-27T06:57:51;101946.69;;;14.51;53.43
3294;BME280;1659;51.470;6.770;2023-04-27T07:00:18;101940.13;;;14.75;51.89
3294;BME280;1659;51.470;6.770;2023-04-27T07:02:45;101946.16;;;14.83;50.98
3294;BME280;1659;51.470;6.770;2023-04-27T07:05:11;101944.25;;;14.93;50.05
3294;BME280;1659;51.470;6.770;2023-04-27T07:07:39;101935.56;;;15.28;50.08
3294;BME280;1659;51.470;6.770;2023-04-27T07:10:07;101938.47;;;15.61;49.64
3294;BME280;1659;51.470;6.770;2023-04-27T07:12:34;101931.78;;;15.85;49.44
3294;BME280;1659;51.470;6.770;2023-04-27T07:15:01;101939.88;;;16.20;48.27
3294;BME280;1659;51.470;6.770;2023-04-27T07:17:28;101941.63;;;16.21;47.43
3294;BME280;1659;51.470;6.770;2023-04-27T07:19:55;101935.38;;;16.22;47.93
3294;BME280;1659;51.470;6.770;2023-04-27T07:22:21;101936.06;;;16.30;46.17
3294;BME280;1659;51.470;6.770;2023-04-27T07:24:49;101937.41;;;16.48;47.35
3294;BME280;1659;51.470;6.770;2023-04-27T07:27:16;101937.03;;;16.64;46.94
3294;BME280;1659;51.470;6.770;2023-04-27T07:29:43;101933.81;;;16.87;46.88
3294;BME280;1659;51.470;6.770;2023-04-27T07:32:10;101940.31;;;17.09;46.65
3294;BME280;1659;51.470;6.770;2023-04-27T07:34:36;101938.72;;;17.04;46.33
3294;BME280;1659;51.470;6.770;2023-04-27T07:37:03;101940.69;;;17.28;45.93
3294;BME280;1659;51.470;6.770;2023-04-27T07:39:29;101943.97;;;17.38;45.81
3294;BME280;1659;51.470;6.770;2023-04-27T07:41:57;101939.63;;;17.65;44.68
3294;BME280;1659;51.470;6.770;2023-04-27T07:44:24;101930.97;;;17.87;44.86
3294;BME280;1659;51.470;6.770;2023-04-27T07:46:51;101934.44;;;17.90;44.01
3294;BME280;1659;51.470;6.770;2023-04-27T07:49:22;101930.06;;;18.16;44.29
3294;BME280;1659;51.470;6.770;2023-04-27T07:51:49;101934.06;;;18.58;43.48
3294;BME280;1659;51.470;6.770;2023-04-27T07:54:16;101925.19;;;18.29;42.82
3294;BME280;1659;51.470;6.770;2023-04-27T07:56:42;101927.31;;;18.19;42.75
3294;BME280;1659;51.470;6.770;2023-04-27T07:59:10;101919.75;;;18.04;42.74
3294;BME280;1659;51.470;6.770;2023-04-27T08:01:38;101922.56;;;18.27;43.04
3294;BME280;1659;51.470;6.770;2023-04-27T08:04:05;101919.16;;;18.51;42.63
3294;BME280;1659;51.470;6.770;2023-04-27T08:06:32;101919.44;;;18.68;42.28
3294;BME280;1659;51.470;6.770;2023-04-27T08:08:59;101922.94;;;18.97;42.49
3294;BME280;1659;51.470;6.770;2023-04-27T08:11:27;101924.31;;;19.32;41.74
3294;BME280;1659;51.470;6.770;2023-04-27T08:13:54;101911.56;;;19.15;40.88
3294;BME280;1659;51.470;6.770;2023-04-27T08:16:21;101917.38;;;19.03;39.89
3294;BME280;1659;51.470;6.770;2023-04-27T08:18:48;101909.81;;;18.89;40.05
3294;BME280;1659;51.470;6.770;2023-04-27T08:21:15;101906.59;;;18.78;39.01
3294;BME280;1659;51.470;6.770;2023-04-27T08:23:42;101903.63;;;18.60;39.50
3294;BME280;1659;51.470;6.770;2023-04-27T08:26:13;101906.50;;;18.56;39.51
3294;BME280;1659;51.470;6.770;2023-04-27T08:28:39;101895.88;;;18.78;39.79
3294;BME280;1659;51.470;6.770;2023-04-27T08:31:06;101901.00;;;19.11;38.91
3294;BME280;1659;51.470;6.770;2023-04-27T08:33:34;101895.44;;;19.40;38.63
3294;BME280;1659;51.470;6.770;2023-04-27T08:36:01;101891.81;;;19.65;39.07
3294;BME280;1659;51.470;6.770;2023-04-27T08:38:27;101884.72;;;19.64;38.63
3294;BME280;1659;51.470;6.770;2023-04-27T08:40:54;101896.31;;;20.10;38.74
3294;BME280;1659;51.470;6.770;2023-04-27T08:43:20;101888.59;;;20.45;38.41
3294;BME280;1659;51.470;6.770;2023-04-27T08:45:48;101891.09;;;20.50;38.14
3294;BME280;1659;51.470;6.770;2023-04-27T08:48:16;101894.38;;;20.56;38.36
3294;BME280;1659;51.470;6.770;2023-04-27T08:50:44;101893.06;;;20.46;37.99
3294;BME280;1659;51.470;6.770;2023-04-27T08:53:18;101898.25;;;20.29;38.28
3294;BME280;1659;51.470;6.770;2023-04-27T08:55:45;101900.44;;;20.19;37.13
3294;BME280;1659;51.470;6.770;2023-04-27T08:58:12;101896.13;;;19.93;37.45
3294;BME280;1659;51.470;6.770;2023-04-27T09:00:39;101899.19;;;19.84;37.85
3294;BME280;1659;51.470;6.770;2023-04-27T09:03:06;101899.19;;;19.84;37.75
3294;BME280;1659;51.470;6.770;2023-04-27T09:05:33;101896.66;;;19.79;38.16
3294;BME280;1659;51.470;6.770;2023-04-27T09:08:02;101891.34;;;20.01;38.18
3294;BME280;1659;51.470;6.770;2023-04-27T09:10:42;101887.41;;;20.10;37.38
3294;BME280;1659;51.470;6.770;2023-04-27T09:13:09;101885.50;;;20.34;38.25
3294;BME280;1659;51.470;6.770;2023-04-27T09:15:40;101879.22;;;20.55;38.12
3294;BME280;1659;51.470;6.770;2023-04-27T09:18:13;101878.13;;;20.60;36.56
3294;BME280;1659;51.470;6.770;2023-04-27T09:20:44;101882.44;;;20.21;37.00
3294;BME280;1659;51.470;6.770;2023-04-27T09:23:24;101876.97;;;20.02;35.34
3294;BME280;1659;51.470;6.770;2023-04-27T09:25:51;101881.31;;;19.83;36.52
3294;BME280;1659;51.470;6.770;2023-04-27T09:28:17;101883.44;;;19.74;36.73
3294;BME280;1659;51.470;6.770;2023-04-27T09:30:50;101880.09;;;19.68;36.39
3294;BME280;1659;51.470;6.770;2023-04-27T09:33:22;101870.09;;;19.49;36.59
3294;BME280;1659;51.470;6.770;2023-04-27T09:35:49;101881.63;;;19.51;36.35
3294;BME280;1659;51.470;6.770;2023-04-27T09:38:17;101880.69;;;19.52;36.45
3294;BME280;1659;51.470;6.770;2023-04-27T09:40:44;101872.88;;;19.46;36.97
3294;BME280;1659;51.470;6.770;2023-04-27T09:43:11;101872.41;;;19.58;37.08
3294;BME280;1659;51.470;6.770;2023-04-27T09:45:37;101872.22;;;19.63;35.95
3294;BME280;1659;51.470;6.770;2023-04-27T09:48:05;101865.47;;;19.53;35.81
3294;BME280;1659;51.470;6.770;2023-04-27T09:50:33;101872.06;;;19.44;36.59
3294;BME280;1659;51.470;6.770;2023-04-27T09:53:01;101867.34;;;19.51;36.62
3294;BME280;1659;51.470;6.770;2023-04-27T09:55:32;101863.53;;;19.56;35.64
3294;BME280;1659;51.470;6.770;2023-04-27T09:58:16;101861.44;;;19.65;36.18
3294;BME280;1659;51.470;6.770;2023-04-27T10:00:54;101858.31;;;19.77;35.84
3294;BME280;1659;51.470;6.770;2023-04-27T10:03:29;101858.44;;;19.27;35.44
3294;BME280;1659;51.470;6.770;2023-04-27T10:06:26;101855.00;;;19.47;35.10
3294;BME280;1659;51.470;6.770;2023-04-27T10:09:02;101847.63;;;19.75;35.85
3294;BME280;1659;51.470;6.770;2023-04-27T10:11:38;101849.88;;;20.08;35.18
3294;BME280;1659;51.470;6.770;2023-04-27T10:14:06;101849.22;;;20.03;34.71
3294;BME280;1659;51.470;6.770;2023-04-27T10:16:39;101842.94;;;20.25;35.55
3294;BME280;1659;51.470;6.770;2023-04-27T10:19:09;101840.28;;;20.45;35.07
3294;BME280;1659;51.470;6.770;2023-04-27T10:21:35;101840.88;;;20.52;35.35
3294;BME280;1659;51.470;6.770;2023-04-27T10:24:06;101840.75;;;20.55;35.01
3294;BME280;1659;51.470;6.770;2023-04-27T10:26:33;101835.28;;;19.93;34.84
3294;BME280;1659;51.470;6.770;2023-04-27T10:29:05;101823.47;;;19.06;35.39
3294;BME280;1659;51.470;6.770;2023-04-27T10:31:33;101829.66;;;19.08;35.56
3294;BME280;1659;51.470;6.770;2023-04-27T10:34:07;101831.28;;;19.12;35.45
3294;BME280;1659;51.470;6.770;2023-04-27T10:36:34;101828.97;;;19.27;35.16
3294;BME280;1659;51.470;6.770;2023-04-27T10:39:02;101820.75;;;19.31;34.82
3294;BME280;1659;51.470;6.770;2023-04-27T10:41:33;101825.94;;;19.12;34.98
3294;BME280;1659;51.470;6.770;2023-04-27T10:44:15;101824.69;;;18.72;34.99
3294;BME280;1659;51.470;6.770;2023-04-27T10:46:51;101829.72;;;18.56;34.71
3294;BME280;1659;51.470;6.770;2023-04-27T10:49:18;101834.03;;;18.60;34.64
3294;BME280;1659;51.470;6.770;2023-04-27T10:51:45;101829.75;;;18.80;33.58
3294;BME280;1659;51.470;6.770;2023-04-27T10:54:12;101825.06;;;19.12;34.16
3294;BME280;1659;51.470;6.770;2023-04-27T10:56:39;101828.88;;;19.52;33.85
3294;BME280;1659;51.470;6.770;2023-04-27T10:59:06;101810.19;;;19.50;34.00
3294;BME280;1659;51.470;6.770;2023-04-27T11:01:34;101811.19;;;19.92;33.78
3294;BME280;1659;51.470;6.770;2023-04-27T11:04:01;101812.66;;;20.21;33.87
3294;BME280;1659;51.470;6.770;2023-04-27T11:06:30;101800.09;;;20.64;33.25
3294;BME280;1659;51.470;6.770;2023-04-27T11:08:58;101809.00;;;20.65;32.66
3294;BME280;1659;51.470;6.770;2023-04-27T11:11:24;101811.78;;;20.63;32.71
3294;BME280;1659;51.470;6.770;2023-04-27T11:13:51;101808.22;;;20.63;32.62
3294;BME280;1659;51.470;6.770;2023-04-27T11:16:18;101807.53;;;20.78;32.87
3294;BME280;1659;51.470;6.770;2023-04-27T11:18:46;101816.59;;;21.15;32.14
3294;BME280;1659;51.470;6.770;2023-04-27T11:21:14;101818.44;;;21.34;32.53
3294;BME280;1659;51.470;6.770;2023-04-27T11:23:41;101809.53;;;21.31;32.22
3294;BME280;1659;51.470;6.770;2023-04-27T11:26:08;101805.41;;;21.24;32.15
3294;BME280;1659;51.470;6.770;2023-04-27T11:28:35;101802.69;;;21.05;32.09
3294;BME280;1659;51.470;6.770;2023-04-27T11:31:02;101797.13;;;21.29;32.15
3294;BME280;1659;51.470;6.770;2023-04-27T11:33:29;101800.44;;;21.55;31.74
3294;BME280;1659;51.470;6.770;2023-04-27T11:35:58;101792.81;;;21.44;31.95
3294;BME280;1659;51.470;6.770;2023-04-27T11:38:25;101793.09;;;21.58;31.48
3294;BME280;1659;51.470;6.770;2023-04-27T11:40:59;101784.84;;;21.61;31.59
3294;BME280;1659;51.470;6.770;2023-04-27T11:43:26;101778.84;;;21.74;31.60
3294;BME280;1659;51.470;6.770;2023-04-27T11:45:54;101775.72;;;21.83;31.51
3294;BME280;1659;51.470;6.770;2023-04-27T11:48:21;101785.84;;;21.78;31.21
3294;BME280;1659;51.470;6.770;2023-04-27T11:50:49;101782.66;;;21.69;31.24
3294;BME280;1659;51.470;6.770;2023-04-27T11:53:28;101768.91;;;21.76;31.06
3294;BME280;1659;51.470;6.770;2023-04-27T11:55:58;101774.16;;;22.14;31.08
3294;BME280;1659;51.470;6.770;2023-04-27T11:58:26;101767.41;;;22.57;30.93
3294;BME280;1659;51.470;6.770;2023-04-27T12:00:55;101768.44;;;23.06;30.58
3294;BME280;1659;51.470;6.770;2023-04-27T12:03:22;101762.03;;;23.40;30.24
3294;BME280;1659;51.470;6.770;2023-04-27T12:05:49;101756.16;;;23.64;30.03
3294;BME280;1659;51.470;6.770;2023-04-27T12:08:16;101746.56;;;23.90;29.84
3294;BME280;1659;51.470;6.770;2023-04-27T12:10:44;101751.88;;;23.75;29.21
3294;BME280;1659;51.470;6.770;2023-04-27T12:13:11;101755.31;;;23.15;29.55
3294;BME280;1659;51.470;6.770;2023-04-27T12:15:38;101754.56;;;22.62;29.12
3294;BME280;1659;51.470;6.770;2023-04-27T12:18:05;101743.75;;;22.12;29.17
3294;BME280;1659;51.470;6.770;2023-04-27T12:20:32;101751.13;;;22.08;29.01
3294;BME280;1659;51.470;6.770;2023-04-27T12:22:58;101746.13;;;22.18;28.88
3294;BME280;1659;51.470;6.770;2023-04-27T12:25:25;101746.75;;;21.88;28.73
3294;BME280;1659;51.470;6.770;2023-04-27T12:27:53;101735.56;;;21.61;29.00
3294;BME280;1659;51.470;6.770;2023-04-27T12:30:21;101737.41;;;21.78;29.05
3294;BME280;1659;51.470;6.770;2023-04-27T12:32:48;101737.97;;;21.84;28.94
3294;BME280;1659;51.470;6.770;2023-04-27T12:35:15;101729.28;;;21.97;29.06
3294;BME280;1659;51.470;6.770;2023-04-27T12:37:42;101731.00;;;22.33;29.13
3294;BME280;1659;51.470;6.770;2023-04-27T12:40:09;101736.91;;;22.57;28.79
3294;BME280;1659;51.470;6.770;2023-04-27T12:42:35;101729.94;;;22.86;28.75
3294;BME280;1659;51.470;6.770;2023-04-27T12:45:04;101734.00;;;23.27;28.72
3294;BME280;1659;51.470;6.770;2023-04-27T12:47:31;101722.50;;;23.23;28.40
3294;BME280;1659;51.470;6.770;2023-04-27T12:49:59;101729.91;;;23.19;28.21
3294;BME280;1659;51.470;6.770;2023-04-27T12:52:26;101727.66;;;23.44;27.63
3294;BME280;1659;51.470;6.770;2023-04-27T12:54:52;101729.81;;;23.05;27.85
3294;BME280;1659;51.470;6.770;2023-04-27T12:57:23;101717.00;;;22.93;27.69
3294;BME280;1659;51.470;6.770;2023-04-27T12:59:50;101721.78;;;23.04;28.03
3294;BME280;1659;51.470;6.770;2023-04-27T13:02:18;101715.34;;;22.90;27.49
3294;BME280;1659;51.470;6.770;2023-04-27T13:04:45;101720.47;;;22.46;27.41
3294;BME280;1659;51.470;6.770;2023-04-27T13:07:11;101724.00;;;22.63;27.62
3294;BME280;1659;51.470;6.770;2023-04-27T13:09:38;101720.28;;;23.15;27.65
3294;BME280;1659;51.470;6.770;2023-04-27T13:12:06;101721.59;;;23.70;26.96
3294;BME280;1659;51.470;6.770;2023-04-27T13:14:32;101719.59;;;24.04;26.97
3294;BME280;1659;51.470;6.770;2023-04-27T13:16:59;101716.88;;;24.35;26.49